Bucks Lake, California
Current Conditions -  °F | °C
As of 7:52 PM on Wednesday 17 Dec 2014 (Local Time) from KBLU Reporting Station
Overcast Overcast  
Wind Chill: 29°   Ceiling: 2000
Heat Index: 33°   Visibility: 9mi
Dew Point: 30°   Wind: 5mph
Humidity: 89%   Direction: NA
Pressure: 30.06"   Gusts: NA
Location:  39.939°N, 120.918°W
Report Text: KBLU 180352Z AUTO VRB04KT 9SM SCT003 OVC020 01/M01 A3006 RMK AO2 SNE24 SLP187 P0001 I1000 T00061011
Loading
Personal Weather Stations






























Interactive Weather Map New forecast layout! Learn more

10-Day Weather Forecast

Advertisements
Track Severe Weather on mobile